createdAt,value
2017-11-25T00:00:45.794Z,230.90
2017-11-25T00:03:13.277Z,225.77
2017-11-25T00:05:40.737Z,207.73
2017-11-25T00:08:08.223Z,196.83
2017-11-25T00:10:35.701Z,189.87
2017-11-25T00:13:03.171Z,165.67
2017-11-25T00:15:30.662Z,235.20
2017-11-25T00:17:58.142Z,151.07
2017-11-25T00:20:25.627Z,263.90
2017-11-25T00:22:53.087Z,141.57
2017-11-25T00:25:20.574Z,197.77
2017-11-25T00:27:48.041Z,196.60
2017-11-25T00:30:15.541Z,397.77
2017-11-25T00:32:43.011Z,104.03
2017-11-25T00:35:10.501Z,298.33
2017-11-25T00:37:38.004Z,248.30
2017-11-25T00:40:05.467Z,160.13
2017-11-25T00:42:32.933Z,143.27
2017-11-25T00:45:00.435Z,139.83
2017-11-25T00:47:27.919Z,143.50
2017-11-25T00:49:55.386Z,162.70
2017-11-25T00:52:22.893Z,150.63
2017-11-25T00:54:50.355Z,145.77
2017-11-25T00:57:18.028Z,183.10
2017-11-25T00:59:45.491Z,183.27
2017-11-25T01:02:12.959Z,200.27
2017-11-25T01:04:40.457Z,158.23
2017-11-25T01:07:07.921Z,184.83
2017-11-25T01:09:35.395Z,226.20
2017-11-25T01:12:03.000Z,235.37
2017-11-25T01:14:30.470Z,224.33
2017-11-25T01:16:57.943Z,277.90
2017-11-25T01:19:25.443Z,230.90
2017-11-25T01:21:53.210Z,215.23
2017-11-25T01:24:20.673Z,240.17
2017-11-25T01:26:48.170Z,142.40
2017-11-25T01:29:15.659Z,130.87
2017-11-25T01:31:43.170Z,256.10
2017-11-25T01:34:10.831Z,125.70
2017-11-25T01:36:38.289Z,67.67
2017-11-25T01:39:05.795Z,333.73
2017-11-25T01:41:33.260Z,318.07
2017-11-25T01:44:00.722Z,108.40
2017-11-25T01:46:28.211Z,408.50
2017-11-25T01:48:55.671Z,121.93
2017-11-25T01:51:23.158Z,363.20
2017-11-25T01:53:50.621Z,269.90
2017-11-25T01:56:18.207Z,161.80
2017-11-25T01:58:45.667Z,95.67
2017-11-25T02:01:13.133Z,226.37
2017-11-25T02:03:40.621Z,145.33
2017-11-25T02:06:08.143Z,193.53
2017-11-25T02:08:35.644Z,216.80
2017-11-25T02:11:03.103Z,289.40
2017-11-25T02:13:30.584Z,290.53
2017-11-25T02:15:58.051Z,302.53
2017-11-25T02:18:25.519Z,302.10
2017-11-25T02:20:53.062Z,216.93
2017-11-25T02:23:20.526Z,249.77
2017-11-25T02:25:47.996Z,192.67
2017-11-25T02:28:15.488Z,262.27
2017-11-25T02:30:42.970Z,198.87
2017-11-25T02:33:10.476Z,222.07
2017-11-25T02:35:37.981Z,212.03
2017-11-25T02:38:05.446Z,250.87
2017-11-25T02:40:32.906Z,193.27
2017-11-25T02:43:00.398Z,213.23
2017-11-25T02:45:27.883Z,190.93
2017-11-25T02:47:55.386Z,221.60
2017-11-25T02:50:22.855Z,159.20
2017-11-25T02:52:50.355Z,179.47
2017-11-25T02:55:17.828Z,126.60
2017-11-25T02:57:45.315Z,148.40
2017-11-25T03:00:12.803Z,149.30
2017-11-25T03:02:40.278Z,122.03
2017-11-25T03:05:07.766Z,117.07
2017-11-25T03:07:35.234Z,124.93
2017-11-25T03:10:02.701Z,162.90
2017-11-25T03:12:30.195Z,165.20
2017-11-25T03:14:57.660Z,188.77
2017-11-25T03:17:25.143Z,156.23
2017-11-25T03:19:52.615Z,200.60
2017-11-25T03:22:20.311Z,119.43
2017-11-25T03:24:47.774Z,169.07
2017-11-25T03:27:15.247Z,183.50
2017-11-25T03:29:42.734Z,176.53
2017-11-25T03:32:10.203Z,125.00
2017-11-25T03:34:37.691Z,118.23
2017-11-25T03:37:05.152Z,109.77
2017-11-25T03:39:32.646Z,151.47
2017-11-25T03:42:00.110Z,139.33
2017-11-25T03:44:27.614Z,109.27
2017-11-25T03:46:55.118Z,190.00
2017-11-25T03:49:22.582Z,282.93
2017-11-25T03:51:50.061Z,303.20
2017-11-25T03:54:17.570Z,93.47
2017-11-25T03:56:45.051Z,128.77
2017-11-25T03:59:12.569Z,96.47
2017-11-25T04:01:40.029Z,85.40
2017-11-25T04:04:07.499Z,151.63
2017-11-25T04:06:35.119Z,157.27
2017-11-25T04:09:02.586Z,104.93
2017-11-25T04:11:30.076Z,99.33
2017-11-25T04:13:57.551Z,280.27
2017-11-25T04:16:25.051Z,216.67
2017-11-25T04:18:52.519Z,250.33
2017-11-25T04:21:19.980Z,324.20
2017-11-25T04:23:47.484Z,125.33
2017-11-25T04:26:14.962Z,260.70
2017-11-25T04:28:42.454Z,144.30
2017-11-25T04:31:09.935Z,133.50
2017-11-25T04:33:37.400Z,149.63
2017-11-25T04:36:04.863Z,111.37
2017-11-25T04:38:32.351Z,180.23
2017-11-25T04:41:00.222Z,192.17
2017-11-25T04:43:27.710Z,213.60
2017-11-25T04:45:55.180Z,188.33
2017-11-25T04:48:22.662Z,117.17
2017-11-25T04:50:50.157Z,85.87
2017-11-25T04:53:17.622Z,241.20
2017-11-25T04:55:45.102Z,81.07
2017-11-25T04:58:12.579Z,224.47
2017-11-25T05:00:40.050Z,200.00
2017-11-25T05:03:08.518Z,169.47
2017-11-25T05:05:36.488Z,116.27
2017-11-25T05:08:03.974Z,156.70
2017-11-25T05:10:31.431Z,156.30
2017-11-25T05:13:00.553Z,224.27
2017-11-25T05:15:28.014Z,122.37
2017-11-25T05:17:55.508Z,234.60
2017-11-25T05:20:23.004Z,297.03
2017-11-25T05:22:50.474Z,207.37
2017-11-25T05:25:17.971Z,307.80
2017-11-25T05:27:45.435Z,459.43
2017-11-25T05:30:12.921Z,349.67
2017-11-25T05:32:40.403Z,240.23
2017-11-25T05:35:07.867Z,183.27
2017-11-25T05:37:35.373Z,122.63
2017-11-25T05:40:02.851Z,124.40
2017-11-25T05:42:30.332Z,200.37
2017-11-25T05:44:57.815Z,120.97
2017-11-25T05:47:25.302Z,136.10
2017-11-25T05:49:52.782Z,353.37
2017-11-25T05:52:20.240Z,273.07
2017-11-25T05:54:47.728Z,217.53
2017-11-25T05:57:15.195Z,108.60
2017-11-25T05:59:42.683Z,95.77
2017-11-25T06:02:10.201Z,356.47
2017-11-25T06:04:37.674Z,318.03
2017-11-25T06:07:05.569Z,98.70
2017-11-25T06:09:33.032Z,263.10
2017-11-25T06:12:00.530Z,227.47
2017-11-25T06:14:28.015Z,439.30
2017-11-25T06:16:55.487Z,445.80
2017-11-25T06:19:22.969Z,325.03
2017-11-25T06:21:50.435Z,386.93
2017-11-25T06:24:17.924Z,129.67
2017-11-25T06:26:45.391Z,144.00
2017-11-25T06:29:13.023Z,314.60
2017-11-25T06:31:40.512Z,197.77
2017-11-25T06:34:08.007Z,342.67
2017-11-25T06:36:35.476Z,253.00
2017-11-25T06:39:03.049Z,178.77
2017-11-25T06:41:30.661Z,227.13
2017-11-25T06:43:58.159Z,224.03
2017-11-25T06:46:25.631Z,154.10
2017-11-25T06:48:53.108Z,99.77
2017-11-25T06:51:20.602Z,165.33
2017-11-25T06:53:48.078Z,144.50
2017-11-25T06:56:15.550Z,104.63
2017-11-25T06:58:43.055Z,134.90
2017-11-25T07:01:10.562Z,106.93
2017-11-25T07:03:38.038Z,122.27
2017-11-25T07:06:05.527Z,131.00
2017-11-25T07:08:33.085Z,113.07
2017-11-25T07:11:00.571Z,127.60
2017-11-25T07:13:28.050Z,155.27
2017-11-25T07:15:55.551Z,114.83
2017-11-25T07:18:23.047Z,145.60
2017-11-25T07:20:50.498Z,88.23
2017-11-25T07:23:17.955Z,87.77
2017-11-25T07:25:45.432Z,78.33
2017-11-25T07:28:12.917Z,190.87
2017-11-25T07:30:40.390Z,109.53
2017-11-25T07:33:07.875Z,167.40
2017-11-25T07:35:35.339Z,98.30
2017-11-25T07:38:02.838Z,149.37
2017-11-25T07:40:30.323Z,127.57
2017-11-25T07:42:57.928Z,124.83
2017-11-25T07:45:25.438Z,137.10
2017-11-25T07:47:52.903Z,134.00
2017-11-25T07:50:20.390Z,103.50
2017-11-25T07:52:47.878Z,115.93
2017-11-25T07:55:15.347Z,132.60
2017-11-25T07:57:42.843Z,111.93
2017-11-25T08:00:10.343Z,136.63
2017-11-25T08:02:37.803Z,130.93
2017-11-25T08:05:05.295Z,220.43
2017-11-25T08:07:32.765Z,269.70
2017-11-25T08:10:00.267Z,236.67
2017-11-25T08:12:27.779Z,153.07
2017-11-25T08:14:55.280Z,153.87
2017-11-25T08:17:22.773Z,160.10
2017-11-25T08:19:50.247Z,121.17
2017-11-25T08:22:17.741Z,123.53
2017-11-25T08:24:45.207Z,93.43
2017-11-25T08:27:12.680Z,87.37
2017-11-25T08:29:40.167Z,90.33
2017-11-25T08:32:07.626Z,109.10
2017-11-25T08:34:35.322Z,193.73
2017-11-25T08:37:02.796Z,127.43
2017-11-25T08:39:30.359Z,92.27
2017-11-25T08:41:57.834Z,111.43
2017-11-25T08:44:25.308Z,96.37
2017-11-25T08:46:52.802Z,82.07
2017-11-25T08:49:20.261Z,85.80
2017-11-25T08:51:47.814Z,81.90
2017-11-25T08:54:15.424Z,83.10
2017-11-25T08:56:42.913Z,87.33
2017-11-25T08:59:10.397Z,109.47
2017-11-25T09:01:37.862Z,90.57
2017-11-25T09:04:05.406Z,82.63
2017-11-25T09:06:32.856Z,79.97
2017-11-25T09:09:00.329Z,100.67
2017-11-25T09:11:27.810Z,62.90
2017-11-25T09:13:55.285Z,54.37
2017-11-25T09:16:22.774Z,68.73
2017-11-25T09:18:50.256Z,52.60
2017-11-25T09:21:17.732Z,50.27
2017-11-25T09:23:45.218Z,45.60
2017-11-25T09:26:12.703Z,38.70
2017-11-25T09:28:40.159Z,34.23
2017-11-25T09:31:07.645Z,37.90
2017-11-25T09:33:35.140Z,51.87
2017-11-25T09:36:02.601Z,48.70
2017-11-25T09:38:30.058Z,34.20
2017-11-25T09:40:57.550Z,38.43
2017-11-25T09:43:25.010Z,47.90
2017-11-25T09:45:52.479Z,65.73
2017-11-25T09:48:19.958Z,74.00
2017-11-25T09:50:47.414Z,76.57
2017-11-25T09:53:14.899Z,65.23
2017-11-25T09:55:42.350Z,85.30
2017-11-25T09:58:09.819Z,99.93
2017-11-25T10:00:37.300Z,91.43
2017-11-25T10:03:04.774Z,59.93
2017-11-25T10:05:32.260Z,72.13
2017-11-25T10:07:59.716Z,60.40
2017-11-25T10:10:27.178Z,53.00
2017-11-25T10:12:54.660Z,61.43
2017-11-25T10:15:22.138Z,45.90
2017-11-25T10:17:49.628Z,33.23
2017-11-25T10:20:17.085Z,36.00
2017-11-25T10:22:44.557Z,35.97
2017-11-25T10:25:12.040Z,30.47
2017-11-25T10:27:39.519Z,31.40
2017-11-25T10:30:07.007Z,39.07
2017-11-25T10:32:34.464Z,44.40
2017-11-25T10:35:01.962Z,53.40
2017-11-25T10:37:29.654Z,46.97
2017-11-25T10:39:57.132Z,60.27
2017-11-25T10:42:24.616Z,57.93
2017-11-25T10:44:52.071Z,52.87
2017-11-25T10:47:19.548Z,57.17
2017-11-25T10:49:47.041Z,72.90
2017-11-25T10:52:14.504Z,61.47
2017-11-25T10:54:41.981Z,72.20
2017-11-25T10:57:09.439Z,54.63
2017-11-25T10:59:36.960Z,57.90
2017-11-25T11:02:04.427Z,63.53
2017-11-25T11:04:31.908Z,63.93
2017-11-25T11:06:59.375Z,59.77
2017-11-25T11:09:26.874Z,79.17
2017-11-25T11:11:54.337Z,77.43
2017-11-25T11:14:21.819Z,95.70
2017-11-25T11:16:50.128Z,65.93
2017-11-25T11:19:17.678Z,62.37
2017-11-25T11:21:45.167Z,58.87
2017-11-25T11:24:12.637Z,43.50
2017-11-25T11:26:40.136Z,33.37
2017-11-25T11:29:07.641Z,34.97
2017-11-25T11:31:35.150Z,29.10
2017-11-25T11:34:02.631Z,28.97
2017-11-25T11:36:30.111Z,32.33
2017-11-25T11:38:57.577Z,27.60
2017-11-25T11:41:25.059Z,29.30
2017-11-25T11:43:52.515Z,35.37
2017-11-25T11:46:20.006Z,21.93
2017-11-25T11:48:47.466Z,22.00
2017-11-25T11:51:14.954Z,30.87
2017-11-25T11:53:42.445Z,36.23
2017-11-25T11:56:09.922Z,36.60
2017-11-25T11:58:37.429Z,35.83
2017-11-25T12:01:04.896Z,30.03
2017-11-25T12:03:32.379Z,26.00
2017-11-25T12:05:59.854Z,38.57
2017-11-25T12:08:27.358Z,38.77
2017-11-25T12:10:54.839Z,25.30
2017-11-25T12:13:22.304Z,28.10
2017-11-25T12:15:49.837Z,29.80
2017-11-25T12:18:17.294Z,26.37
2017-11-25T12:20:44.758Z,26.57
2017-11-25T12:23:12.465Z,26.00
2017-11-25T12:25:39.933Z,34.20
2017-11-25T12:28:07.415Z,31.53
2017-11-25T12:30:34.903Z,25.30
2017-11-25T12:33:02.368Z,25.33
2017-11-25T12:35:29.833Z,31.60
2017-11-25T12:37:57.303Z,33.60
2017-11-25T12:40:25.386Z,46.97
2017-11-25T12:42:52.866Z,45.10
2017-11-25T12:45:20.319Z,53.20
2017-11-25T12:47:47.790Z,53.80
2017-11-25T12:50:15.283Z,49.67
2017-11-25T12:52:42.755Z,51.47
2017-11-25T12:55:10.239Z,54.87
2017-11-25T12:57:37.695Z,46.03
2017-11-25T13:00:05.166Z,57.20
2017-11-25T13:02:32.653Z,37.33
2017-11-25T13:05:00.108Z,62.57
2017-11-25T13:07:27.579Z,42.07
2017-11-25T13:09:55.065Z,36.43
2017-11-25T13:12:22.542Z,37.30
2017-11-25T13:14:50.025Z,37.93
2017-11-25T13:17:17.488Z,30.27
2017-11-25T13:19:44.951Z,40.17
2017-11-25T13:22:12.449Z,30.77
2017-11-25T13:24:39.929Z,26.83
2017-11-25T13:27:07.386Z,32.87
2017-11-25T13:29:34.861Z,30.03
2017-11-25T13:32:02.346Z,23.53
2017-11-25T13:34:29.831Z,34.30
2017-11-25T13:36:57.287Z,26.23
2017-11-25T13:39:24.771Z,17.40
2017-11-25T13:41:52.268Z,27.80
2017-11-25T13:44:19.720Z,26.13
2017-11-25T13:46:47.214Z,22.53
2017-11-25T13:49:14.680Z,21.20
2017-11-25T13:51:42.158Z,24.93
2017-11-25T13:54:09.615Z,45.13
2017-11-25T13:56:37.098Z,33.40
2017-11-25T13:59:04.609Z,23.73
2017-11-25T14:01:32.067Z,22.00
2017-11-25T14:03:59.537Z,30.73
2017-11-25T14:06:27.014Z,30.90
2017-11-25T14:08:54.513Z,25.20
2017-11-25T14:11:21.979Z,28.17
2017-11-25T14:13:49.470Z,22.13
2017-11-25T14:16:16.937Z,23.63
2017-11-25T14:18:44.409Z,26.07
2017-11-25T14:21:12.075Z,23.77
2017-11-25T14:23:39.533Z,25.00
2017-11-25T14:26:07.023Z,22.57
2017-11-25T14:28:34.510Z,23.50
2017-11-25T14:31:01.992Z,17.63
2017-11-25T14:33:29.452Z,22.53
2017-11-25T14:35:56.949Z,28.40
2017-11-25T14:38:24.454Z,20.23
2017-11-25T14:40:51.937Z,25.17
2017-11-25T14:43:19.423Z,22.83
2017-11-25T14:45:46.912Z,12.57
2017-11-25T14:48:14.494Z,21.20
2017-11-25T14:50:41.955Z,22.10
2017-11-25T14:53:09.413Z,26.20
2017-11-25T14:55:36.908Z,32.93
2017-11-25T14:58:04.395Z,20.97
2017-11-25T15:00:31.856Z,25.67
2017-11-25T15:02:59.315Z,26.03
2017-11-25T15:05:26.798Z,23.80
2017-11-25T15:07:54.257Z,21.63
2017-11-25T15:10:21.891Z,24.07
2017-11-25T15:12:49.383Z,26.10
2017-11-25T15:15:16.864Z,31.13
2017-11-25T15:17:44.346Z,25.47
2017-11-25T15:20:11.885Z,34.83
2017-11-25T15:22:39.374Z,31.87
2017-11-25T15:25:06.835Z,26.63
2017-11-25T15:27:34.296Z,23.90
2017-11-25T15:30:01.778Z,34.13
2017-11-25T15:32:29.241Z,27.83
2017-11-25T15:34:56.726Z,23.27
2017-11-25T15:37:24.303Z,25.43
2017-11-25T15:39:52.183Z,21.10
2017-11-25T15:42:19.674Z,27.00
2017-11-25T15:44:47.146Z,23.90
2017-11-25T15:47:14.922Z,23.60
2017-11-25T15:49:42.393Z,21.47
2017-11-25T15:52:09.904Z,20.90
2017-11-25T15:54:37.370Z,22.10
2017-11-25T15:57:04.850Z,22.77
2017-11-25T15:59:32.338Z,24.83
2017-11-25T16:01:59.817Z,18.30
2017-11-25T16:04:27.300Z,20.50
2017-11-25T16:06:54.758Z,24.47
2017-11-25T16:09:22.250Z,22.10
2017-11-25T16:11:49.714Z,18.37
2017-11-25T16:14:17.175Z,30.17
2017-11-25T16:16:44.651Z,17.77
2017-11-25T16:19:12.103Z,22.10
2017-11-25T16:21:39.607Z,18.27
2017-11-25T16:24:07.798Z,19.93
2017-11-25T16:26:35.324Z,22.03
2017-11-25T16:29:02.839Z,19.10
2017-11-25T16:31:30.302Z,26.43
2017-11-25T16:33:57.788Z,20.67
2017-11-25T16:36:25.519Z,27.80
2017-11-25T16:38:52.972Z,24.93
2017-11-25T16:41:20.448Z,17.37
2017-11-25T16:43:47.903Z,17.93
2017-11-25T16:46:15.385Z,23.33
2017-11-25T16:48:42.873Z,22.03
2017-11-25T16:51:10.346Z,18.13
2017-11-25T16:53:37.822Z,17.43
2017-11-25T16:56:05.282Z,20.93
2017-11-25T16:58:32.750Z,18.67
2017-11-25T17:01:00.229Z,12.67
2017-11-25T17:03:27.688Z,9.47
2017-11-25T17:05:55.162Z,10.10
2017-11-25T17:08:23.506Z,12.57
2017-11-25T17:10:50.980Z,8.63
2017-11-25T17:13:18.488Z,8.37
2017-11-25T17:15:45.989Z,7.10
2017-11-25T17:18:13.434Z,8.90
2017-11-25T17:20:40.943Z,7.47
2017-11-25T17:23:08.400Z,6.47
2017-11-25T17:25:35.858Z,15.17
2017-11-25T17:28:03.330Z,4.13
2017-11-25T17:30:30.785Z,7.33
2017-11-25T17:32:58.259Z,5.67
2017-11-25T17:35:25.721Z,3.83
2017-11-25T17:37:53.202Z,5.90
2017-11-25T17:40:20.669Z,5.83
2017-11-25T17:42:48.167Z,6.20
2017-11-25T17:45:15.617Z,6.37
2017-11-25T17:47:43.068Z,8.20
2017-11-25T17:50:10.600Z,5.50
2017-11-25T17:52:38.361Z,5.30
2017-11-25T17:55:05.840Z,12.93
2017-11-25T17:57:33.307Z,4.03
2017-11-25T18:00:00.970Z,7.47
2017-11-25T18:02:28.446Z,3.77
2017-11-25T18:04:55.938Z,3.60
2017-11-25T18:07:23.420Z,3.37
2017-11-25T18:09:51.079Z,4.20
2017-11-25T18:12:18.535Z,4.20
2017-11-25T18:14:46.010Z,8.50
2017-11-25T18:17:13.924Z,7.90
2017-11-25T18:19:41.388Z,12.50
2017-11-25T18:22:08.869Z,16.63
2017-11-25T18:24:36.660Z,5.03
2017-11-25T18:27:04.137Z,12.77
2017-11-25T18:29:31.931Z,18.43
2017-11-25T18:31:59.382Z,5.37
2017-11-25T18:34:26.845Z,4.90
2017-11-25T18:36:54.322Z,11.00
2017-11-25T18:39:21.817Z,13.80
2017-11-25T18:41:49.275Z,7.60
2017-11-25T18:44:16.756Z,8.47
2017-11-25T18:46:44.246Z,14.93
2017-11-25T18:49:11.750Z,19.77
2017-11-25T18:51:39.223Z,23.33
2017-11-25T18:54:06.703Z,17.40
2017-11-25T18:56:34.168Z,13.13
2017-11-25T18:59:01.744Z,19.43
2017-11-25T19:01:29.223Z,11.33
2017-11-25T19:03:56.717Z,22.00
2017-11-25T19:06:24.186Z,27.43
2017-11-25T19:08:51.759Z,14.47
2017-11-25T19:11:19.260Z,9.70
2017-11-25T19:13:46.931Z,6.90
2017-11-25T19:16:14.391Z,5.77
2017-11-25T19:18:42.334Z,5.87
2017-11-25T19:21:09.870Z,7.10
2017-11-25T19:23:37.338Z,6.83
2017-11-25T19:26:04.798Z,9.73
2017-11-25T19:28:32.266Z,9.73
2017-11-25T19:30:59.734Z,16.87
2017-11-25T19:33:27.222Z,12.43
2017-11-25T19:35:54.695Z,8.70
2017-11-25T19:38:22.178Z,9.80
2017-11-25T19:40:49.635Z,9.27
2017-11-25T19:43:17.112Z,8.80
2017-11-25T19:45:44.829Z,10.60
2017-11-25T19:48:12.286Z,11.33
2017-11-25T19:50:39.923Z,8.80
2017-11-25T19:53:07.404Z,10.83
2017-11-25T19:55:34.982Z,11.13
2017-11-25T19:58:02.443Z,10.17
2017-11-25T20:00:30.603Z,11.93
2017-11-25T20:02:58.131Z,12.53
2017-11-25T20:05:25.594Z,10.27
2017-11-25T20:07:53.052Z,9.53
2017-11-25T20:10:20.519Z,8.90
2017-11-25T20:12:48.015Z,11.33
2017-11-25T20:15:15.484Z,11.17
2017-11-25T20:17:42.963Z,14.17
2017-11-25T20:20:10.437Z,12.47
2017-11-25T20:22:37.929Z,11.47
2017-11-25T20:25:05.402Z,11.30
2017-11-25T20:27:32.871Z,10.37
2017-11-25T20:30:00.360Z,11.07
2017-11-25T20:32:27.828Z,10.30
2017-11-25T20:34:55.566Z,10.10
2017-11-25T20:37:23.020Z,11.00
2017-11-25T20:39:50.790Z,7.03
2017-11-25T20:42:18.244Z,7.60
2017-11-25T20:44:45.737Z,7.40
2017-11-25T20:47:13.198Z,15.37
2017-11-25T20:49:41.718Z,5.83
2017-11-25T20:52:09.491Z,8.93
2017-11-25T20:54:36.968Z,7.13
2017-11-25T20:57:04.428Z,6.33
2017-11-25T20:59:31.934Z,9.97
2017-11-25T21:01:59.415Z,7.67
2017-11-25T21:04:27.096Z,6.13
2017-11-25T21:06:54.737Z,15.33
2017-11-25T21:09:22.220Z,6.57
2017-11-25T21:11:49.670Z,5.03
2017-11-25T21:14:17.152Z,4.40
2017-11-25T21:16:44.614Z,6.37
2017-11-25T21:19:12.085Z,4.80
2017-11-25T21:21:39.575Z,6.77
2017-11-25T21:24:07.025Z,5.87
2017-11-25T21:26:34.484Z,6.20
2017-11-25T21:29:02.339Z,6.07
2017-11-25T21:31:29.816Z,7.53
2017-11-25T21:33:57.500Z,5.80
2017-11-25T21:36:24.946Z,4.77
2017-11-25T21:38:52.395Z,5.63
2017-11-25T21:41:19.869Z,6.37
2017-11-25T21:43:47.359Z,5.90
2017-11-25T21:46:14.859Z,12.90
2017-11-25T21:48:42.329Z,5.63
2017-11-25T21:51:09.826Z,6.40
2017-11-25T21:53:37.296Z,6.37
2017-11-25T21:56:04.768Z,8.27
2017-11-25T21:58:32.251Z,10.43
2017-11-25T22:00:59.703Z,7.83
2017-11-25T22:03:27.163Z,7.70
2017-11-25T22:05:54.649Z,6.50
2017-11-25T22:08:22.137Z,8.73
2017-11-25T22:10:49.604Z,6.47
2017-11-25T22:13:17.071Z,7.23
2017-11-25T22:15:44.558Z,7.50
2017-11-25T22:18:12.035Z,8.97
2017-11-25T22:20:39.483Z,9.10
2017-11-25T22:23:06.967Z,8.30
2017-11-25T22:25:34.434Z,11.23
2017-11-25T22:28:01.939Z,8.50
2017-11-25T22:30:29.463Z,7.27
2017-11-25T22:32:56.979Z,6.63
2017-11-25T22:35:24.750Z,7.23
2017-11-25T22:37:52.488Z,7.00
2017-11-25T22:40:20.011Z,7.33
2017-11-25T22:42:47.478Z,6.33
2017-11-25T22:45:14.965Z,6.60
2017-11-25T22:47:42.457Z,9.20
2017-11-25T22:50:09.959Z,7.07
2017-11-25T22:52:37.506Z,6.60
2017-11-25T22:55:04.986Z,8.20
2017-11-25T22:57:32.540Z,7.13
2017-11-25T23:00:00.479Z,8.10
2017-11-25T23:02:27.996Z,8.43
2017-11-25T23:04:55.470Z,7.33
2017-11-25T23:07:22.919Z,9.50
2017-11-25T23:09:50.402Z,7.10
2017-11-25T23:12:17.865Z,8.07
2017-11-25T23:14:45.328Z,6.87
2017-11-25T23:17:12.797Z,7.30
2017-11-25T23:19:40.271Z,9.17
2017-11-25T23:22:08.026Z,9.40
2017-11-25T23:24:35.476Z,17.07
2017-11-25T23:27:02.928Z,9.43
2017-11-25T23:29:30.407Z,7.77
2017-11-25T23:31:57.870Z,8.40
2017-11-25T23:34:25.353Z,7.20
2017-11-25T23:36:52.816Z,7.70
2017-11-25T23:39:20.299Z,8.40
2017-11-25T23:41:47.771Z,7.27
2017-11-25T23:44:15.494Z,7.87
2017-11-25T23:46:42.964Z,8.33
2017-11-25T23:49:10.417Z,7.23
2017-11-25T23:51:37.899Z,11.00
2017-11-25T23:54:05.370Z,8.40
2017-11-25T23:56:33.800Z,6.33
2017-11-25T23:59:01.266Z,6.67
